Time;durP1;ratioP1;P1;durP2;ratioP2;P2;SDS_P1;SDS_P2;PMS_P1;PMS_P2;Temp;Humidity;BMP_temperature;BMP_pressure;BME280_temperature;BME280_humidity;BME280_pressure;Samples;Min_cycle;Max_cycle;Signal;HPM_P1;HPM_P2
2021/10/28 16:34:29;;;;;;;63.70;39.28;;;;;;;;;;5074807;28;20056;-57
2021/10/28 16:36:55;;;;;;;59.40;32.53;;;;;;;;;;5075364;28;20025;-57
2021/10/28 16:39:20;;;;;;;61.35;35.05;;;;;;;;;;5075497;28;20143;-57
2021/10/28 16:41:47;;;;;;;67.40;33.17;;;;;;;;;;5075298;28;20447;-57
2021/10/28 16:44:13;;;;;;;67.95;34.88;;;;;;;;;;5075212;28;20028;-57
2021/10/28 16:46:39;;;;;;;79.13;42.88;;;;;;;;;;5075055;28;20090;-57
2021/10/28 16:49:06;;;;;;;53.80;31.15;;;;;;;;;;5056767;28;20032;-58
2021/10/28 16:51:32;;;;;;;40.75;21.83;;;;;;;;;;5075200;28;20039;-57
2021/10/28 16:53:57;;;;;;;36.85;20.75;;;;;;;;;;5074670;28;20467;-57
2021/10/28 16:56:22;;;;;;;43.50;23.08;;;;;;;;;;5075033;28;20055;-57
2021/10/28 16:58:48;;;;;;;66.22;31.95;;;;;;;;;;5074866;28;20420;-57
2021/10/28 17:01:14;;;;;;;80.70;38.50;;;;;;;;;;5073899;28;20025;-58
2021/10/28 17:03:39;;;;;;;86.35;41.05;;;;;;;;;;5070456;28;20488;-58
2021/10/28 17:06:05;;;;;;;97.82;47.72;;;;;;;;;;5070549;28;20067;-58
2021/10/28 17:08:31;;;;;;;106.10;51.88;;;;;;;;;;5052828;28;20044;-58
2021/10/28 17:10:57;;;;;;;116.53;53.35;;;;;;;;;;5070964;28;20039;-58
2021/10/28 17:13:23;;;;;;;89.82;43.17;;;;;;;;;;5042615;28;20071;-58
2021/10/28 17:15:49;;;;;;;95.47;45.15;;;;;;;;;;5050530;28;20173;-58
2021/10/28 17:18:14;;;;;;;115.60;52.20;;;;;;;;;;5050762;28;20037;-58
2021/10/28 17:20:40;;;;;;;98.82;47.13;;;;;;;;;;5050592;28;20033;-58
2021/10/28 17:23:10;;;;;;;66.60;34.00;;;;;;;;;;5047725;28;20055;-58
2021/10/28 17:25:40;;;;;;;73.15;35.78;;;;;;;;;;5050586;28;20040;-57
2021/10/28 17:28:06;;;;;;;80.07;39.65;;;;;;;;;;5047567;28;20025;-58
2021/10/28 17:30:32;;;;;;;89.97;42.20;;;;;;;;;;5050611;28;20709;-58
2021/10/28 17:32:57;;;;;;;89.25;41.83;;;;;;;;;;5050618;28;20040;-58
2021/10/28 17:35:23;;;;;;;79.20;38.33;;;;;;;;;;5058627;28;20025;-58
2021/10/28 17:37:49;;;;;;;85.28;41.60;;;;;;;;;;5050374;28;20547;-58
2021/10/28 17:40:15;;;;;;;87.15;43.70;;;;;;;;;;5050003;28;20032;-58
2021/10/28 17:42:42;;;;;;;96.55;45.83;;;;;;;;;;5043930;28;20021;-58
2021/10/28 17:45:11;;;;;;;111.50;49.20;;;;;;;;;;5050425;28;20479;-58
2021/10/28 17:47:37;;;;;;;114.70;51.90;;;;;;;;;;5049948;28;20025;-58
2021/10/28 17:50:04;;;;;;;120.30;53.50;;;;;;;;;;5050183;28;20051;-58
2021/10/28 17:52:29;;;;;;;113.53;53.88;;;;;;;;;;5049835;28;20021;-58
2021/10/28 17:54:55;;;;;;;120.68;54.58;;;;;;;;;;5050186;28;20491;-58
2021/10/28 17:57:20;;;;;;;111.00;53.33;;;;;;;;;;5050056;28;20475;-58
2021/10/28 17:59:46;;;;;;;118.13;52.38;;;;;;;;;;5049873;28;20120;-58
2021/10/28 18:02:12;;;;;;;111.78;51.58;;;;;;;;;;5049650;28;20045;-58
2021/10/28 18:04:38;;;;;;;110.00;49.72;;;;;;;;;;5049944;28;20087;-58
2021/10/28 18:07:04;;;;;;;105.90;49.72;;;;;;;;;;5049808;28;20013;-58
2021/10/28 18:09:29;;;;;;;109.13;50.00;;;;;;;;;;5049802;28;20110;-59
2021/10/28 18:11:55;;;;;;;95.15;47.13;;;;;;;;;;5049939;28;20048;-59
2021/10/28 18:14:24;;;;;;;100.43;47.90;;;;;;;;;;5049739;28;20069;-58
2021/10/28 18:16:50;;;;;;;99.35;45.75;;;;;;;;;;5049893;28;20029;-58
2021/10/28 18:19:16;;;;;;;99.90;48.15;;;;;;;;;;5049935;28;20041;-59
2021/10/28 18:21:44;;;;;;;112.65;50.70;;;;;;;;;;5049828;28;20025;-59
2021/10/28 18:24:10;;;;;;;112.00;52.60;;;;;;;;;;5049936;28;20029;-59
2021/10/28 18:26:36;;;;;;;87.38;46.13;;;;;;;;;;5049644;28;20076;-59
2021/10/28 18:29:02;;;;;;;70.15;42.17;;;;;;;;;;5049257;28;20519;-59
2021/10/28 18:31:28;;;;;;;70.93;40.42;;;;;;;;;;5041892;28;20021;-59
2021/10/28 18:33:56;;;;;;;67.28;38.92;;;;;;;;;;5048118;28;20029;-59
2021/10/28 18:36:22;;;;;;;70.88;43.50;;;;;;;;;;5049903;28;20103;-59
2021/10/28 18:38:49;;;;;;;73.53;43.00;;;;;;;;;;5049272;28;20116;-60
2021/10/28 18:41:15;;;;;;;71.68;42.90;;;;;;;;;;5049338;28;20060;-59
2021/10/28 18:43:41;;;;;;;76.15;44.97;;;;;;;;;;5049272;28;20625;-59
2021/10/28 18:46:08;;;;;;;104.40;53.97;;;;;;;;;;5049477;28;20056;-60
2021/10/28 18:48:33;;;;;;;89.30;49.40;;;;;;;;;;5049360;28;20059;-59
2021/10/28 18:50:59;;;;;;;72.45;42.53;;;;;;;;;;5049647;28;20063;-59
2021/10/28 18:53:25;;;;;;;71.55;42.10;;;;;;;;;;5049200;28;20045;-59
2021/10/28 18:55:51;;;;;;;81.05;45.95;;;;;;;;;;5044712;28;20027;-59
2021/10/28 18:58:16;;;;;;;85.72;48.67;;;;;;;;;;5040292;28;20033;-59
2021/10/28 19:00:42;;;;;;;84.45;48.78;;;;;;;;;;5049221;28;20032;-60
2021/10/28 19:03:07;;;;;;;90.72;49.67;;;;;;;;;;5049012;28;20056;-60
2021/10/28 19:05:33;;;;;;;85.97;45.42;;;;;;;;;;5042573;28;20509;-60
2021/10/28 19:07:59;;;;;;;109.75;56.85;;;;;;;;;;5052906;28;20025;-59
2021/10/28 19:10:24;;;;;;;127.50;62.72;;;;;;;;;;5044481;28;20021;-59
2021/10/28 19:12:50;;;;;;;114.85;60.38;;;;;;;;;;5052490;28;20048;-59
2021/10/28 19:15:17;;;;;;;101.30;53.95;;;;;;;;;;5043422;28;20410;-59
2021/10/28 19:17:45;;;;;;;96.57;53.47;;;;;;;;;;5053291;28;20494;-59
2021/10/28 19:20:13;;;;;;;90.82;51.28;;;;;;;;;;5052874;28;20033;-60
2021/10/28 19:22:39;;;;;;;93.50;52.65;;;;;;;;;;5052978;28;20100;-59
2021/10/28 19:25:06;;;;;;;108.30;56.58;;;;;;;;;;5052777;28;20483;-59
2021/10/28 19:27:31;;;;;;;100.75;55.45;;;;;;;;;;5052557;28;20116;-59
2021/10/28 19:30:02;;;;;;;96.70;52.40;;;;;;;;;;5048800;28;20060;-60
2021/10/28 19:32:29;;;;;;;96.28;53.17;;;;;;;;;;5052769;28;20031;-60
2021/10/28 19:34:55;;;;;;;107.88;59.17;;;;;;;;;;5054125;28;20025;-59
2021/10/28 19:37:36;;;;;;;116.72;59.75;;;;;;;;;;5056076;28;20057;-59
2021/10/28 19:47:56;;;;;;;227.18;82.85;;;;;;;;;;5036667;28;20033;-59
2021/10/28 19:50:21;;;;;;;219.77;82.30;;;;;;;;;;5036410;28;20353;-60
2021/10/28 19:52:47;;;;;;;200.18;80.38;;;;;;;;;;5036174;28;20116;-60
2021/10/28 19:55:13;;;;;;;156.10;67.00;;;;;;;;;;5051595;28;20072;-60
2021/10/28 19:57:47;;;;;;;139.35;64.20;;;;;;;;;;5029934;28;20127;-60
2021/10/28 20:08:06;;;;;;;142.32;62.80;;;;;;;;;;5036050;28;20460;-59
2021/10/28 20:13:36;;;;;;;99.97;46.15;;;;;;;;;;5035647;28;20423;-59
2021/10/28 20:21:25;;;;;;;103.10;47.80;;;;;;;;;;5055744;28;20025;-60
2021/10/28 20:23:50;;;;;;;101.55;45.50;;;;;;;;;;5055681;28;20021;-59
2021/10/28 20:26:16;;;;;;;125.10;54.13;;;;;;;;;;5055389;28;20033;-59
2021/10/28 20:28:44;;;;;;;121.13;52.95;;;;;;;;;;5055349;28;20444;-59
2021/10/28 20:31:11;;;;;;;118.20;54.88;;;;;;;;;;5055410;28;20037;-60
2021/10/28 20:33:51;;;;;;;118.45;54.65;;;;;;;;;;5055814;28;20083;-59
2021/10/28 20:38:56;;;;;;;64.45;34.53;;;;;;;;;;5055739;28;20082;-60
2021/10/28 20:41:23;;;;;;;88.87;42.20;;;;;;;;;;5047047;28;20032;-60
2021/10/28 20:43:48;;;;;;;83.03;40.47;;;;;;;;;;5054249;28;20113;-60
2021/10/28 20:46:20;;;;;;;82.47;41.47;;;;;;;;;;5055439;28;20451;-59
2021/10/28 20:48:47;;;;;;;71.75;39.72;;;;;;;;;;5055396;28;20031;-59
2021/10/28 20:51:12;;;;;;;64.78;35.58;;;;;;;;;;5055075;28;20052;-59
2021/10/28 20:53:38;;;;;;;48.53;27.45;;;;;;;;;;5055184;28;20493;-59
2021/10/28 20:56:03;;;;;;;54.65;30.23;;;;;;;;;;5055109;28;20092;-59
2021/10/28 20:58:29;;;;;;;57.17;29.90;;;;;;;;;;5047482;28;20418;-60
2021/10/28 21:00:54;;;;;;;44.63;26.75;;;;;;;;;;5053714;28;20025;-59
2021/10/28 21:03:20;;;;;;;43.78;26.23;;;;;;;;;;5054991;28;20040;-59
2021/10/28 21:05:45;;;;;;;47.47;28.00;;;;;;;;;;5054945;28;20038;-59
2021/10/28 21:08:11;;;;;;;48.15;28.40;;;;;;;;;;5053261;28;20455;-60
2021/10/28 21:10:36;;;;;;;46.20;27.80;;;;;;;;;;5048398;28;20019;-59
2021/10/28 21:13:03;;;;;;;47.65;27.55;;;;;;;;;;5054356;28;20041;-59
2021/10/28 21:15:29;;;;;;;46.53;27.67;;;;;;;;;;5054706;28;20044;-59
2021/10/28 21:17:55;;;;;;;49.05;28.02;;;;;;;;;;5054594;28;20115;-60
2021/10/28 21:20:21;;;;;;;51.03;29.17;;;;;;;;;;5054699;28;20112;-59
2021/10/28 21:22:48;;;;;;;51.03;29.60;;;;;;;;;;5054493;28;20364;-59
2021/10/28 21:25:13;;;;;;;60.90;34.33;;;;;;;;;;5054061;28;20376;-61
2021/10/28 21:27:39;;;;;;;55.67;30.25;;;;;;;;;;5054812;28;20032;-59
2021/10/28 21:30:08;;;;;;;55.42;28.35;;;;;;;;;;5054554;28;20472;-59
2021/10/28 21:32:34;;;;;;;43.50;26.95;;;;;;;;;;5054392;28;20048;-59
2021/10/28 21:35:00;;;;;;;49.53;28.38;;;;;;;;;;5054505;28;20068;-60
2021/10/28 21:37:26;;;;;;;48.47;28.20;;;;;;;;;;5054252;28;20017;-59
2021/10/28 21:39:55;;;;;;;46.13;26.52;;;;;;;;;;5049793;28;20108;-59
2021/10/28 21:42:22;;;;;;;46.47;28.23;;;;;;;;;;5045300;28;20009;-59
2021/10/28 21:44:47;;;;;;;48.28;29.25;;;;;;;;;;5054078;28;20029;-60
2021/10/28 21:47:13;;;;;;;53.55;30.90;;;;;;;;;;5053822;28;20023;-59
2021/10/28 21:49:39;;;;;;;52.03;31.90;;;;;;;;;;5054078;28;20068;-59
2021/10/28 21:52:22;;;;;;;53.97;31.75;;;;;;;;;;5053989;28;20013;-59
2021/10/28 22:24:52;;;;;;;47.65;27.65;;;;;;;;;;5053870;28;20032;-59
2021/10/28 22:27:21;;;;;;;45.67;28.85;;;;;;;;;;5053558;28;20379;-59
2021/10/28 22:29:47;;;;;;;46.92;29.98;;;;;;;;;;5053648;28;20021;-59
2021/10/28 22:32:14;;;;;;;49.53;30.02;;;;;;;;;;5053360;28;20421;-59
2021/10/28 22:34:41;;;;;;;51.60;31.15;;;;;;;;;;5053803;28;20032;-59
2021/10/28 22:37:09;;;;;;;54.15;31.30;;;;;;;;;;5053117;28;20098;-60
2021/10/28 22:39:55;;;;;;;56.42;32.63;;;;;;;;;;5053495;28;20029;-60
2021/10/28 22:42:22;;;;;;;59.40;33.55;;;;;;;;;;5053654;28;20498;-60
2021/10/28 22:44:48;;;;;;;50.95;31.55;;;;;;;;;;5053505;28;20037;-59
2021/10/28 22:47:14;;;;;;;51.47;31.58;;;;;;;;;;5053289;28;20052;-59
2021/10/28 22:49:39;;;;;;;53.25;31.40;;;;;;;;;;5053326;28;20108;-60
2021/10/28 22:52:10;;;;;;;50.70;30.80;;;;;;;;;;5050671;28;20033;-60
2021/10/28 22:54:36;;;;;;;53.40;32.03;;;;;;;;;;5053238;28;20029;-59
2021/10/28 22:57:02;;;;;;;60.38;36.42;;;;;;;;;;5053312;28;20020;-60
2021/10/28 22:59:27;;;;;;;54.58;31.95;;;;;;;;;;5053126;28;20430;-60
2021/10/28 23:02:16;;;;;;;55.30;31.55;;;;;;;;;;5053180;28;20021;-60
2021/10/28 23:05:01;;;;;;;51.53;31.73;;;;;;;;;;5046700;28;20072;-60
2021/10/28 23:23:04;;;;;;;50.55;30.77;;;;;;;;;;5057015;28;20033;-60
2021/10/28 23:25:30;;;;;;;47.58;29.33;;;;;;;;;;5049456;28;20024;-60
2021/10/28 23:27:55;;;;;;;48.42;29.73;;;;;;;;;;5056671;28;20025;-60
2021/10/28 23:30:21;;;;;;;50.58;31.20;;;;;;;;;;5056741;28;20103;-60
2021/10/28 23:32:46;;;;;;;51.83;30.15;;;;;;;;;;5056716;28;20021;-60
2021/10/28 23:35:12;;;;;;;47.72;29.75;;;;;;;;;;5056713;28;20009;-60
2021/10/28 23:37:37;;;;;;;46.35;27.80;;;;;;;;;;5056866;28;20037;-60
2021/10/28 23:40:04;;;;;;;44.47;28.58;;;;;;;;;;5056667;28;20075;-60
2021/10/28 23:42:30;;;;;;;44.70;29.23;;;;;;;;;;5049223;28;20033;-59
2021/10/28 23:44:55;;;;;;;48.70;30.05;;;;;;;;;;5056674;28;20025;-60
2021/10/28 23:47:21;;;;;;;40.78;28.35;;;;;;;;;;5056516;28;20514;-60
2021/10/28 23:49:46;;;;;;;44.65;28.73;;;;;;;;;;5056626;28;20041;-60
2021/10/28 23:52:12;;;;;;;42.35;27.85;;;;;;;;;;5056505;28;20438;-60
2021/10/28 23:54:38;;;;;;;42.22;28.17;;;;;;;;;;5050156;28;20024;-60
2021/10/28 23:57:03;;;;;;;41.28;25.38;;;;;;;;;;5054980;28;20035;-60
2021/10/28 23:59:29;;;;;;;40.53;25.38;;;;;;;;;;5048418;28;20025;-59
